Time;durP1;ratioP1;P1;durP2;ratioP2;P2;SDS_P1;SDS_P2;PMS_P1;PMS_P2;Temp;Humidity;BMP_temperature;BMP_pressure;BME280_temperature;BME280_humidity;BME280_pressure;Samples;Min_cycle;Max_cycle;Signal;HPM_P1;HPM_P2
2022/01/29 00:02:02;;;;;;;12.20;7.05;;;;;;;4.55;63.09;101394.56;10460629;28;20412;-67
2022/01/29 00:07:04;;;;;;;11.85;6.72;;;;;;;4.57;62.91;101382.44;10460978;28;20044;-66
2022/01/29 00:12:06;;;;;;;13.93;7.85;;;;;;;4.57;63.13;101369.47;10465209;28;20153;-66
2022/01/29 00:17:08;;;;;;;14.30;7.65;;;;;;;4.60;63.09;101370.28;10469073;28;20051;-66
2022/01/29 00:22:09;;;;;;;15.48;8.43;;;;;;;4.53;63.22;101362.63;10468308;28;20131;-66
2022/01/29 00:27:11;;;;;;;14.55;8.15;;;;;;;4.59;63.09;101360.81;10469742;28;20287;-66
2022/01/29 00:32:13;;;;;;;17.02;8.20;;;;;;;4.61;62.96;101364.25;10467579;28;20063;-66
2022/01/29 00:37:15;;;;;;;14.45;7.65;;;;;;;4.65;63.02;101360.75;10468100;28;20058;-67
2022/01/29 00:42:17;;;;;;;15.15;8.27;;;;;;;4.59;63.19;101355.63;10469472;28;20048;-66
2022/01/29 00:47:18;;;;;;;15.50;8.32;;;;;;;4.52;63.47;101350.53;10468126;28;20052;-66
2022/01/29 00:52:20;;;;;;;14.40;8.80;;;;;;;4.57;63.30;101344.44;10467737;28;20122;-66
2022/01/29 00:57:23;;;;;;;19.75;8.73;;;;;;;4.53;63.13;101332.41;10460717;28;20523;-66
2022/01/29 01:02:25;;;;;;;15.48;8.10;;;;;;;4.53;63.41;101336.72;10465806;28;20044;-67
2022/01/29 01:07:27;;;;;;;13.48;7.40;;;;;;;4.62;62.96;101319.31;10472872;28;20055;-66
2022/01/29 01:12:29;;;;;;;14.52;7.82;;;;;;;4.55;63.16;101324.59;10471518;28;21009;-66
2022/01/29 01:17:30;;;;;;;13.95;7.57;;;;;;;4.47;63.55;101321.25;10463841;28;20135;-66
2022/01/29 01:22:32;;;;;;;14.65;7.78;;;;;;;4.49;63.62;101302.22;10465125;28;20087;-66
2022/01/29 01:27:34;;;;;;;16.85;8.13;;;;;;;4.50;63.47;101290.13;10466907;28;20562;-66
2022/01/29 01:32:36;;;;;;;14.88;7.82;;;;;;;4.26;64.07;101282.66;10468672;28;20046;-66
2022/01/29 01:38:16;;;;;;;16.00;8.68;;;;;;;4.37;63.88;101279.06;10466040;28;20389;-66
2022/01/29 01:43:06;;;;;;;15.77;8.15;;;;;;;4.31;63.94;101276.53;10467384;28;20058;-66
2022/01/29 01:48:08;;;;;;;14.15;8.73;;;;;;;4.32;64.12;101267.06;10485034;28;20057;-66
2022/01/29 01:53:11;;;;;;;16.65;8.10;;;;;;;4.43;63.86;101271.19;10473162;28;20124;-66
2022/01/29 01:58:12;;;;;;;15.82;8.23;;;;;;;4.38;63.97;101259.19;10473864;28;20051;-66
2022/01/29 02:03:14;;;;;;;12.00;8.00;;;;;;;4.31;64.05;101260.16;10466610;28;20566;-66
2022/01/29 02:08:16;;;;;;;13.80;8.05;;;;;;;4.26;64.43;101249.88;10466381;28;20419;-66
2022/01/29 02:13:18;;;;;;;13.63;8.10;;;;;;;4.41;64.00;101243.63;10466833;28;20048;-66
2022/01/29 02:18:20;;;;;;;14.38;8.43;;;;;;;4.30;64.54;101240.31;10474729;28;20131;-66
2022/01/29 02:23:21;;;;;;;15.27;8.70;;;;;;;4.33;64.44;101230.75;10466691;28;20051;-66
2022/01/29 02:28:24;;;;;;;11.95;8.15;;;;;;;4.32;64.46;101238.56;10467620;28;20056;-66
2022/01/29 02:33:28;;;;;;;15.88;8.63;;;;;;;4.03;65.62;101236.34;10465181;28;20080;-66
2022/01/29 02:38:29;;;;;;;14.48;8.82;;;;;;;4.28;64.94;101230.00;10471034;28;20680;-66
2022/01/29 02:43:40;;;;;;;18.13;9.32;;;;;;;4.24;65.03;101230.91;10464267;28;20048;-66
2022/01/29 02:48:42;;;;;;;13.60;9.40;;;;;;;4.20;65.26;101238.72;10457349;28;20056;-66
2022/01/29 02:53:45;;;;;;;15.48;8.73;;;;;;;4.22;65.18;101224.03;10464659;28;20047;-66
2022/01/29 02:58:47;;;;;;;16.38;9.35;;;;;;;4.22;65.30;101211.94;10464909;28;20052;-66
2022/01/29 03:03:49;;;;;;;17.42;10.20;;;;;;;4.11;65.69;101177.56;10450405;28;20049;-66
2022/01/29 03:08:50;;;;;;;15.60;9.00;;;;;;;4.21;65.52;101157.59;10471983;28;20052;-66
2022/01/29 03:13:53;;;;;;;16.40;9.68;;;;;;;4.19;65.50;101161.94;10470933;28;20566;-66
2022/01/29 03:18:55;;;;;;;18.95;9.32;;;;;;;4.16;65.64;101149.03;10472394;28;20040;-66
2022/01/29 03:23:56;;;;;;;15.13;9.10;;;;;;;3.94;66.46;101135.53;10474920;28;20052;-66
2022/01/29 03:28:58;;;;;;;16.35;9.55;;;;;;;4.05;65.91;101150.94;10506789;28;20054;-66
2022/01/29 03:34:00;;;;;;;15.60;9.10;;;;;;;4.14;65.76;101156.81;10473742;28;20055;-66
2022/01/29 03:39:02;;;;;;;15.15;8.90;;;;;;;4.02;66.14;101146.66;10498314;28;20106;-66
2022/01/29 03:44:07;;;;;;;15.40;9.00;;;;;;;4.03;66.07;101163.03;10470070;28;20049;-66
2022/01/29 03:49:08;;;;;;;18.67;9.60;;;;;;;3.98;66.09;101144.13;10480601;28;20100;-68
2022/01/29 03:54:10;;;;;;;16.05;9.45;;;;;;;4.02;66.13;101123.34;10479618;28;20136;-66
2022/01/29 03:59:12;;;;;;;16.83;9.52;;;;;;;4.06;65.88;101126.75;10477092;28;20058;-66
2022/01/29 04:04:14;;;;;;;14.35;8.57;;;;;;;4.09;65.78;101118.94;10474464;28;20064;-66
2022/01/29 04:09:17;;;;;;;13.07;8.45;;;;;;;4.11;65.60;101110.25;10472533;28;20044;-66
2022/01/29 04:14:20;;;;;;;16.35;8.90;;;;;;;4.18;65.45;101104.13;10486857;28;20048;-66
2022/01/29 04:19:21;;;;;;;13.32;8.75;;;;;;;4.19;65.57;101100.63;10470997;28;20050;-66
2022/01/29 04:24:23;;;;;;;15.02;9.07;;;;;;;4.15;65.83;101100.72;10472438;28;20532;-67
2022/01/29 04:29:28;;;;;;;15.57;9.50;;;;;;;4.07;66.57;101102.59;10471724;28;20144;-67
2022/01/29 04:34:31;;;;;;;16.60;9.18;;;;;;;3.96;67.00;101089.78;10471601;28;20049;-66
2022/01/29 04:39:32;;;;;;;16.27;9.77;;;;;;;3.93;67.46;101089.81;10490422;28;20484;-66
2022/01/29 04:44:34;;;;;;;17.98;10.43;;;;;;;3.88;67.83;101064.91;10471217;28;20063;-66
2022/01/29 04:49:36;;;;;;;17.23;9.82;;;;;;;3.88;67.98;101059.72;10470843;28;20147;-66
2022/01/29 04:54:39;;;;;;;17.27;10.93;;;;;;;3.96;68.09;101052.69;10469718;28;20062;-66
2022/01/29 04:59:40;;;;;;;18.55;10.10;;;;;;;3.89;68.32;101046.75;10471063;28;20049;-66
2022/01/29 05:04:42;;;;;;;19.15;10.38;;;;;;;3.81;68.84;101059.78;10471269;28;20084;-66
2022/01/29 05:09:44;;;;;;;18.33;10.63;;;;;;;3.74;69.31;101052.13;10469697;28;20155;-66
2022/01/29 05:15:06;;;;;;;22.38;10.75;;;;;;;3.73;69.16;101055.56;10480153;28;20158;-67
2022/01/29 05:30:59;;;;;;;15.30;9.57;;;;;;;3.70;69.69;101034.94;10415428;28;20048;-66
2022/01/29 05:36:00;;;;;;;17.73;9.95;;;;;;;3.68;69.64;101041.88;10470248;28;20352;-65
2022/01/29 05:41:05;;;;;;;19.55;9.48;;;;;;;3.81;69.66;101044.25;10470493;28;20118;-67
2022/01/29 05:46:07;;;;;;;16.50;9.25;;;;;;;3.81;69.54;101051.16;10470096;28;20481;-66
2022/01/29 05:51:09;;;;;;;18.30;10.45;;;;;;;3.85;69.55;101042.50;10470015;28;20055;-66
2022/01/29 05:56:11;;;;;;;15.82;10.10;;;;;;;3.95;69.29;101046.66;10469695;28;20075;-67
2022/01/29 06:01:13;;;;;;;15.52;9.48;;;;;;;3.77;70.04;101027.06;10469600;28;20135;-67
2022/01/29 06:06:18;;;;;;;15.45;9.25;;;;;;;3.81;69.94;101023.56;10468414;28;20414;-67
2022/01/29 06:11:21;;;;;;;15.43;8.95;;;;;;;3.70;70.56;101024.59;10468751;28;20140;-67
2022/01/29 06:16:22;;;;;;;15.18;9.18;;;;;;;3.69;70.48;101013.38;10468629;28;20606;-67
2022/01/29 06:21:24;;;;;;;16.10;9.90;;;;;;;3.72;70.42;101010.72;10468566;28;20076;-67
2022/01/29 06:26:26;;;;;;;31.50;17.23;;;;;;;3.73;70.61;101003.84;10468105;28;20052;-67
2022/01/29 06:31:28;;;;;;;14.68;8.88;;;;;;;3.78;70.52;101007.22;10467851;28;20577;-67
2022/01/29 06:36:30;;;;;;;12.90;8.60;;;;;;;3.75;70.79;101007.25;10467719;28;20056;-67
2022/01/29 06:41:31;;;;;;;15.85;8.65;;;;;;;3.79;70.64;100993.41;10467601;28;20045;-67
2022/01/29 06:46:33;;;;;;;12.32;8.27;;;;;;;3.82;70.51;100990.78;10466935;28;20049;-67
2022/01/29 06:51:35;;;;;;;13.52;8.68;;;;;;;3.87;70.42;100996.75;10467489;28;20158;-67
2022/01/29 06:56:36;;;;;;;13.77;8.75;;;;;;;3.92;70.32;100994.97;10478377;28;20060;-67
2022/01/29 07:01:38;;;;;;;13.15;8.52;;;;;;;3.84;70.49;100999.41;10467078;28;20094;-67
2022/01/29 07:06:40;;;;;;;12.98;8.30;;;;;;;3.84;70.63;100981.28;10484166;28;20055;-67
2022/01/29 07:11:43;;;;;;;12.43;8.02;;;;;;;3.88;70.61;100981.19;10487324;28;20131;-68
2022/01/29 07:16:45;;;;;;;12.68;7.97;;;;;;;3.91;70.44;100982.88;10465607;28;20056;-68
2022/01/29 07:21:47;;;;;;;13.18;8.15;;;;;;;3.91;70.65;100982.88;10466461;28;20067;-68
2022/01/29 07:26:49;;;;;;;12.10;8.25;;;;;;;3.86;70.87;100980.34;10466054;28;20044;-68
2022/01/29 07:31:51;;;;;;;10.98;7.43;;;;;;;3.88;70.81;100986.38;10483141;28;20055;-68
2022/01/29 07:36:54;;;;;;;11.05;7.65;;;;;;;3.96;70.78;100986.25;10490080;28;20596;-68
2022/01/29 07:41:56;;;;;;;10.77;7.20;;;;;;;4.06;70.62;100979.19;10467949;28;20044;-68
2022/01/29 07:46:58;;;;;;;10.18;6.47;;;;;;;4.01;70.58;100974.09;10468180;28;20090;-68
2022/01/29 07:52:00;;;;;;;10.10;6.78;;;;;;;4.01;70.46;100958.56;10468130;28;20050;-67
2022/01/29 07:57:02;;;;;;;9.35;5.78;;;;;;;3.96;70.64;100970.75;10486766;28;20476;-67
2022/01/29 08:02:03;;;;;;;6.35;4.60;;;;;;;4.08;70.17;100955.00;10476118;28;20799;-68
2022/01/29 08:07:05;;;;;;;11.95;7.95;;;;;;;4.18;69.63;100958.28;10467690;28;20048;-68
2022/01/29 08:12:08;;;;;;;19.67;11.48;;;;;;;4.32;69.13;100951.13;10467470;28;20071;-67
2022/01/29 08:17:09;;;;;;;6.38;4.10;;;;;;;4.42;68.68;100952.66;10466252;28;20055;-67
2022/01/29 08:22:11;;;;;;;6.78;4.10;;;;;;;4.50;68.55;100954.22;10466811;28;20054;-67
2022/01/29 08:27:13;;;;;;;5.57;3.65;;;;;;;4.58;68.16;100948.88;10467429;28;20052;-67
2022/01/29 08:32:15;;;;;;;5.78;3.30;;;;;;;4.50;67.94;100941.28;10474486;28;20051;-67
2022/01/29 08:37:17;;;;;;;5.15;3.40;;;;;;;4.58;67.95;100957.53;10516377;28;20052;-67
2022/01/29 08:42:18;;;;;;;4.38;2.70;;;;;;;4.58;67.87;100947.16;10496751;28;20056;-67
2022/01/29 08:47:20;;;;;;;4.95;3.08;;;;;;;4.76;67.23;100937.34;10474082;28;20045;-67
2022/01/29 08:52:22;;;;;;;4.30;3.00;;;;;;;4.91;66.99;100924.03;10473558;28;20052;-67
2022/01/29 08:57:24;;;;;;;4.40;2.95;;;;;;;4.83;66.87;100910.38;10483110;28;20048;-68
2022/01/29 09:02:26;;;;;;;4.47;3.05;;;;;;;4.97;66.68;100916.13;10479786;28;20136;-67
2022/01/29 09:07:29;;;;;;;3.90;2.78;;;;;;;5.06;66.33;100913.34;10473467;28;20068;-68
2022/01/29 09:12:32;;;;;;;4.55;2.97;;;;;;;4.96;66.84;100906.66;10473277;28;20561;-67
2022/01/29 09:17:35;;;;;;;4.32;3.10;;;;;;;4.92;66.68;100905.88;10502738;28;20060;-67
2022/01/29 09:22:38;;;;;;;3.97;2.88;;;;;;;5.08;66.28;100894.31;10487968;28;20048;-67
2022/01/29 09:27:40;;;;;;;4.72;2.90;;;;;;;5.14;66.12;100893.31;10513141;28;20074;-67
2022/01/29 09:32:41;;;;;;;4.53;2.97;;;;;;;5.15;66.27;100874.25;10511726;28;20079;-67
2022/01/29 09:37:43;;;;;;;3.72;2.55;;;;;;;5.20;65.69;100887.97;10513742;28;20056;-67
2022/01/29 09:42:46;;;;;;;3.88;2.42;;;;;;;5.29;65.75;100877.38;10494649;28;20572;-67
2022/01/29 09:47:49;;;;;;;3.65;2.40;;;;;;;5.61;65.16;100877.47;10505341;28;20047;-67
2022/01/29 09:52:51;;;;;;;4.43;2.20;;;;;;;5.63;64.98;100875.72;10497802;28;20658;-68
2022/01/29 09:57:53;;;;;;;3.38;2.33;;;;;;;5.76;64.69;100869.31;10471345;28;20142;-67
2022/01/29 10:03:10;;;;;;;3.10;2.17;;;;;;;5.75;64.18;100864.16;10470884;28;20613;-67
2022/01/29 10:08:13;;;;;;;3.35;2.00;;;;;;;5.77;64.60;100863.22;10470705;28;20052;-68
2022/01/29 10:13:21;;;;;;;3.28;2.03;;;;;;;5.79;64.13;100852.81;10470794;28;20052;-67
2022/01/29 10:18:23;;;;;;;3.50;2.00;;;;;;;5.97;64.23;100848.00;10508918;28;20584;-68
2022/01/29 10:23:29;;;;;;;2.60;1.70;;;;;;;6.08;63.92;100839.91;10484851;28;20044;-68
2022/01/29 10:28:32;;;;;;;2.25;1.60;;;;;;;6.11;63.83;100843.28;10467325;28;20147;-68
2022/01/29 10:33:37;;;;;;;3.00;1.80;;;;;;;6.19;63.83;100843.06;10468020;28;20088;-68
2022/01/29 10:38:41;;;;;;;3.33;1.70;;;;;;;6.14;63.45;100837.97;10469698;28;20052;-68
2022/01/29 10:49:22;;;;;;;3.08;2.03;;;;;;;6.49;63.13;100839.63;10467816;28;20424;-67
2022/01/29 10:54:25;;;;;;;2.95;1.70;;;;;;;6.53;63.12;100830.84;10482506;28;20095;-67
2022/01/29 10:59:29;;;;;;;2.92;1.90;;;;;;;6.67;62.75;100833.06;10465744;28;21257;-67
2022/01/29 11:04:34;;;;;;;2.70;1.70;;;;;;;6.80;62.40;100834.38;10465156;28;20668;-67
2022/01/29 11:09:42;;;;;;;3.88;1.80;;;;;;;6.73;62.41;100827.69;10467058;28;20139;-67
2022/01/29 11:14:44;;;;;;;2.90;1.70;;;;;;;6.68;62.63;100813.97;10463367;28;20131;-67
2022/01/29 11:19:46;;;;;;;2.80;1.80;;;;;;;6.72;62.60;100820.78;10467013;28;20048;-67
2022/01/29 11:24:54;;;;;;;2.83;1.80;;;;;;;6.84;62.27;100818.66;10466887;28;20535;-67
2022/01/29 11:29:58;;;;;;;2.78;1.70;;;;;;;6.71;62.35;100827.75;10466914;28;20412;-67
2022/01/29 11:35:17;;;;;;;3.00;1.70;;;;;;;6.42;62.58;100811.28;10465775;28;20056;-67
2022/01/29 11:40:32;;;;;;;2.90;1.88;;;;;;;6.20;63.51;100798.03;10464845;28;20102;-67
2022/01/29 11:46:04;;;;;;;3.45;1.60;;;;;;;6.31;63.50;100798.59;10461153;28;20965;-67
2022/01/29 11:51:10;;;;;;;2.40;1.50;;;;;;;6.40;63.41;100777.56;10463839;28;20060;-67
2022/01/29 11:56:24;;;;;;;2.30;1.40;;;;;;;6.32;63.40;100777.78;10482277;28;20134;-67
2022/01/29 12:01:35;;;;;;;2.13;1.40;;;;;;;6.15;64.07;100771.31;10474287;28;20127;-67
2022/01/29 12:06:42;;;;;;;2.13;1.38;;;;;;;6.20;64.13;100764.25;10467349;28;20053;-68
2022/01/29 12:12:17;;;;;;;2.40;1.50;;;;;;;6.04;64.88;100752.63;10474579;28;20060;-68
2022/01/29 12:17:34;;;;;;;2.22;1.38;;;;;;;6.13;64.73;100728.97;10473172;28;20151;-65
2022/01/29 12:22:37;;;;;;;2.78;1.50;;;;;;;6.39;64.35;100729.06;10484433;28;20139;-65
2022/01/29 12:27:53;;;;;;;2.00;1.30;;;;;;;6.37;64.28;100704.88;10490356;28;20060;-65
2022/01/29 12:33:04;;;;;;;2.30;1.30;;;;;;;6.34;64.64;100700.66;10503720;28;20048;-66
2022/01/29 12:38:11;;;;;;;2.05;1.20;;;;;;;6.29;64.96;100697.34;10489931;28;20140;-65
2022/01/29 12:43:25;;;;;;;2.47;1.40;;;;;;;6.43;64.44;100667.50;10472698;28;20098;-66
2022/01/29 12:48:26;;;;;;;2.78;1.70;;;;;;;6.73;64.30;100653.53;10472022;28;20044;-66
2022/01/29 12:53:28;;;;;;;2.25;1.30;;;;;;;6.77;64.07;100649.91;10471855;28;20519;-66
2022/01/29 12:58:41;;;;;;;1.90;1.27;;;;;;;6.78;64.02;100647.25;10472599;28;20052;-65
2022/01/29 13:03:43;;;;;;;2.13;1.10;;;;;;;6.80;64.44;100642.00;10471423;28;20134;-66
2022/01/29 13:08:45;;;;;;;2.13;1.20;;;;;;;6.85;64.65;100637.53;10468821;28;20053;-66
2022/01/29 13:13:47;;;;;;;2.38;1.20;;;;;;;6.89;64.73;100652.13;10469688;28;20044;-66
2022/01/29 13:18:49;;;;;;;1.52;1.00;;;;;;;7.00;64.80;100657.78;10470652;28;20105;-66
2022/01/29 13:23:51;;;;;;;1.08;0.98;;;;;;;6.96;65.03;100644.06;10469946;28;20059;-66
2022/01/29 13:29:06;;;;;;;1.77;1.10;;;;;;;6.79;65.17;100642.91;10471091;28;20221;-65
2022/01/29 13:34:27;;;;;;;1.10;1.00;;;;;;;6.62;65.67;100640.00;10468543;28;20566;-65
2022/01/29 13:39:46;;;;;;;1.30;1.02;;;;;;;6.70;65.29;100640.59;10470513;28;20594;-66
2022/01/29 13:45:10;;;;;;;1.33;1.00;;;;;;;6.74;65.17;100643.06;10470286;28;20052;-66
2022/01/29 13:50:31;;;;;;;1.15;0.90;;;;;;;6.80;65.18;100627.25;10469783;28;20049;-66
2022/01/29 13:55:36;;;;;;;0.88;0.88;;;;;;;6.87;65.04;100627.91;10469348;28;20550;-66
2022/01/29 14:01:00;;;;;;;1.83;1.00;;;;;;;6.73;64.82;100606.72;10469331;28;20102;-66
2022/01/29 14:06:48;;;;;;;1.90;1.00;;;;;;;6.89;64.70;100610.50;10468405;28;20491;-65
2022/01/29 14:11:59;;;;;;;1.05;0.90;;;;;;;7.03;64.36;100587.47;10420256;28;20428;-66
2022/01/29 14:17:23;;;;;;;1.60;1.00;;;;;;;7.22;64.28;100590.28;10467869;28;20048;-66
2022/01/29 14:22:30;;;;;;;0.82;0.82;;;;;;;7.69;63.19;100564.19;10486682;28;20080;-65
2022/01/29 14:27:32;;;;;;;1.70;0.82;;;;;;;7.70;63.18;100555.50;10464729;28;20382;-66
2022/01/29 14:32:34;;;;;;;1.42;0.90;;;;;;;7.75;62.99;100550.94;10464207;28;20833;-65
2022/01/29 14:37:37;;;;;;;0.68;0.65;;;;;;;7.86;62.75;100540.97;10467926;28;20071;-66
2022/01/29 14:42:44;;;;;;;0.90;0.80;;;;;;;7.88;62.84;100527.91;10467852;28;20509;-66
2022/01/29 14:47:49;;;;;;;1.60;0.80;;;;;;;7.91;62.91;100519.97;10468549;28;20056;-66
2022/01/29 14:52:50;;;;;;;0.73;0.70;;;;;;;7.78;63.17;100510.94;10466586;28;20055;-66
2022/01/29 14:57:52;;;;;;;0.95;0.75;;;;;;;7.78;63.35;100500.53;10467186;28;20048;-65
2022/01/29 15:02:54;;;;;;;1.48;0.90;;;;;;;7.80;63.35;100509.97;10467431;28;20496;-65
2022/01/29 15:07:56;;;;;;;2.58;1.48;;;;;;;7.85;63.21;100513.22;10467873;28;20501;-66
2022/01/29 15:12:58;;;;;;;1.38;1.00;;;;;;;7.72;63.70;100511.19;10466354;28;20114;-65
2022/01/29 15:18:04;;;;;;;1.38;0.95;;;;;;;7.66;63.91;100509.66;10465739;28;20139;-66
2022/01/29 15:23:17;;;;;;;1.30;1.00;;;;;;;7.68;64.20;100501.78;10466514;28;20080;-66
2022/01/29 15:28:20;;;;;;;1.50;0.90;;;;;;;7.72;64.07;100480.78;10467752;28;20508;-66
2022/01/29 15:33:21;;;;;;;1.42;1.00;;;;;;;7.71;64.04;100479.09;10466477;28;20558;-66
2022/01/29 15:38:29;;;;;;;0.95;0.93;;;;;;;7.49;64.92;100491.22;10476774;28;20175;-66
2022/01/29 15:43:33;;;;;;;2.03;1.10;;;;;;;7.69;64.49;100499.13;10486755;28;20044;-66
2022/01/29 15:48:37;;;;;;;0.80;0.80;;;;;;;7.73;64.56;100503.28;10472193;28;20166;-65
2022/01/29 15:53:38;;;;;;;1.20;1.00;;;;;;;7.62;64.91;100502.88;10473867;28;20162;-65
2022/01/29 15:58:40;;;;;;;2.10;1.08;;;;;;;7.84;64.59;100502.88;10474168;28;20211;-65
2022/01/29 16:03:42;;;;;;;1.83;1.10;;;;;;;7.86;64.67;100504.53;10473618;28;20049;-66
2022/01/29 16:08:46;;;;;;;1.63;1.10;;;;;;;7.88;64.99;100478.41;10473288;28;20619;-66
2022/01/29 16:13:48;;;;;;;2.90;1.20;;;;;;;7.73;66.73;100486.84;10471998;28;20871;-65
2022/01/29 16:18:50;;;;;;;2.60;1.30;;;;;;;7.73;67.16;100466.84;10471814;28;20463;-65
2022/01/29 16:23:52;;;;;;;2.38;1.50;;;;;;;7.62;67.77;100469.03;10472290;28;20048;-66
2022/01/29 16:28:53;;;;;;;3.70;2.03;;;;;;;7.44;69.27;100456.75;10471585;28;20166;-66
2022/01/29 16:33:55;;;;;;;2.15;1.20;;;;;;;7.40;69.90;100465.59;10471994;28;20049;-66
2022/01/29 16:38:57;;;;;;;1.75;1.20;;;;;;;7.33;70.12;100445.88;10469400;28;20059;-66
2022/01/29 16:43:58;;;;;;;3.30;2.10;;;;;;;7.28;70.80;100463.44;10472518;28;20049;-66
2022/01/29 16:49:00;;;;;;;2.42;1.35;;;;;;;7.08;72.26;100476.34;10471365;28;20131;-66
2022/01/29 16:54:02;;;;;;;1.60;1.20;;;;;;;7.15;71.87;100465.66;10473399;28;20136;-66
2022/01/29 16:59:04;;;;;;;2.38;1.30;;;;;;;7.12;72.28;100462.31;10471443;28;20595;-66
2022/01/29 17:04:07;;;;;;;1.48;1.10;;;;;;;7.03;73.02;100473.91;10471008;28;20063;-67
2022/01/29 17:09:10;;;;;;;2.25;1.40;;;;;;;7.01;73.25;100477.47;10470278;28;20044;-66
2022/01/29 17:14:12;;;;;;;2.60;1.40;;;;;;;7.02;73.34;100464.41;10470763;28;20401;-67
2022/01/29 17:19:14;;;;;;;3.53;2.28;;;;;;;7.08;73.45;100464.16;10469876;28;20511;-66
2022/01/29 17:24:16;;;;;;;2.22;1.52;;;;;;;7.10;73.55;100458.94;10469531;28;20480;-66
2022/01/29 17:29:18;;;;;;;3.92;1.90;;;;;;;7.03;73.93;100473.06;10468978;28;20060;-66
2022/01/29 17:34:20;;;;;;;3.05;1.77;;;;;;;7.07;73.99;100464.22;10466013;28;20456;-66
2022/01/29 17:39:23;;;;;;;2.63;1.60;;;;;;;7.06;74.12;100465.16;10468037;28;20040;-66
2022/01/29 17:44:25;;;;;;;2.58;1.70;;;;;;;7.11;74.17;100484.03;10469584;28;20504;-66
2022/01/29 17:49:27;;;;;;;2.70;1.50;;;;;;;7.06;74.60;100501.56;10480055;28;20149;-66
2022/01/29 17:54:29;;;;;;;2.33;1.30;;;;;;;7.20;73.86;100505.34;10468360;28;20528;-65
2022/01/29 17:59:31;;;;;;;3.63;1.50;;;;;;;7.15;74.48;100503.81;10467947;28;20078;-66
2022/01/29 18:04:36;;;;;;;2.33;1.40;;;;;;;7.26;73.99;100506.88;10465412;28;20044;-67
2022/01/29 18:09:38;;;;;;;2.50;1.45;;;;;;;7.32;73.95;100505.78;10462475;28;20058;-67
2022/01/29 18:14:41;;;;;;;2.00;1.30;;;;;;;7.55;73.08;100498.81;10465038;28;20048;-67
2022/01/29 18:19:43;;;;;;;2.03;1.23;;;;;;;7.65;72.99;100497.53;10480278;28;20040;-67
2022/01/29 18:24:44;;;;;;;2.70;1.40;;;;;;;7.68;72.92;100518.25;10466725;28;20102;-67
2022/01/29 18:29:48;;;;;;;2.30;1.70;;;;;;;7.80;72.47;100509.97;10461906;28;20057;-67
2022/01/29 18:34:55;;;;;;;2.53;1.70;;;;;;;7.78;72.40;100509.19;10465858;28;20842;-67
2022/01/29 18:39:58;;;;;;;2.60;1.73;;;;;;;7.82;72.30;100525.53;10472579;28;20055;-68
2022/01/29 18:45:17;;;;;;;2.13;1.25;;;;;;;7.82;72.23;100497.75;10474376;28;20086;-68
2022/01/29 18:50:21;;;;;;;2.47;1.42;;;;;;;7.82;72.29;100499.50;10464782;28;20097;-68
2022/01/29 18:55:29;;;;;;;2.97;1.60;;;;;;;7.86;72.07;100488.03;10466432;28;20557;-68
2022/01/29 19:00:33;;;;;;;2.42;1.40;;;;;;;7.97;71.53;100491.94;10463106;28;20127;-68
2022/01/29 19:05:36;;;;;;;2.63;1.60;;;;;;;8.03;71.40;100501.25;10467102;28;20389;-67
2022/01/29 19:10:38;;;;;;;2.80;1.55;;;;;;;7.98;71.56;100493.63;10464191;28;20784;-67
2022/01/29 19:15:46;;;;;;;2.80;1.40;;;;;;;7.98;71.39;100493.63;10465439;28;20510;-68
2022/01/29 19:20:49;;;;;;;2.45;1.40;;;;;;;8.08;71.18;100488.06;10469866;28;20052;-70
2022/01/29 19:25:52;;;;;;;1.75;1.20;;;;;;;8.16;70.71;100475.59;10464133;28;20048;-69
2022/01/29 19:30:53;;;;;;;2.67;1.40;;;;;;;8.22;70.53;100485.75;10464128;28;20399;-70
2022/01/29 19:35:55;;;;;;;2.05;1.40;;;;;;;8.28;69.90;100462.88;10474281;28;20057;-68
2022/01/29 19:40:57;;;;;;;3.63;1.38;;;;;;;8.32;69.76;100479.25;10465707;28;20055;-69
2022/01/29 19:45:59;;;;;;;3.00;1.67;;;;;;;8.48;69.00;100481.16;10464371;28;20284;-69
2022/01/29 19:51:20;;;;;;;4.82;1.60;;;;;;;8.53;68.89;100479.19;10467397;28;20048;-69
2022/01/29 19:56:22;;;;;;;3.22;1.40;;;;;;;8.58;68.33;100477.25;10467428;28;20044;-69
2022/01/29 20:01:24;;;;;;;4.97;2.17;;;;;;;8.71;68.09;100474.91;10464587;28;20067;-69
2022/01/29 20:06:27;;;;;;;3.92;1.80;;;;;;;8.73;67.91;100478.31;10469873;28;20106;-69
2022/01/29 20:11:31;;;;;;;6.80;3.10;;;;;;;8.80;67.59;100471.94;10467393;28;20582;-69
2022/01/29 20:16:32;;;;;;;5.50;2.10;;;;;;;8.66;67.48;100471.69;10466072;28;20048;-68
2022/01/29 20:21:36;;;;;;;2.40;1.30;;;;;;;8.80;67.01;100480.59;10466825;28;20041;-69
2022/01/29 20:26:38;;;;;;;3.97;1.50;;;;;;;8.92;66.89;100494.88;10467841;28;20044;-68
2022/01/29 20:31:39;;;;;;;6.03;1.98;;;;;;;8.93;66.43;100496.56;10474331;28;20058;-68
2022/01/29 20:36:41;;;;;;;4.95;1.95;;;;;;;9.11;66.01;100500.97;10473122;28;20055;-69
2022/01/29 20:41:43;;;;;;;4.43;1.88;;;;;;;9.05;65.70;100493.41;10468441;28;20157;-70
2022/01/29 20:46:52;;;;;;;7.18;2.10;;;;;;;9.13;65.38;100496.53;10469757;28;20044;-68
2022/01/29 20:51:54;;;;;;;5.75;1.90;;;;;;;9.08;65.21;100501.09;10473350;28;20471;-68
2022/01/29 20:56:57;;;;;;;6.20;2.13;;;;;;;9.02;65.17;100511.81;10482069;28;20489;-68
2022/01/29 21:02:00;;;;;;;5.28;2.00;;;;;;;9.00;65.09;100531.03;10474856;28;20040;-68
2022/01/29 21:07:22;;;;;;;12.93;2.92;;;;;;;8.93;64.73;100595.69;10479699;28;20055;-69
2022/01/29 21:12:24;;;;;;;13.63;3.25;;;;;;;8.44;64.09;100596.03;10473417;28;20372;-68
2022/01/29 21:17:26;;;;;;;18.88;3.72;;;;;;;8.10;64.15;100586.09;10471441;28;20501;-68
2022/01/29 21:22:29;;;;;;;17.38;3.50;;;;;;;8.01;63.85;100599.44;10472396;28;20060;-68
2022/01/29 21:27:31;;;;;;;17.33;3.67;;;;;;;7.74;63.98;100600.47;10472403;28;20048;-68
2022/01/29 21:32:33;;;;;;;17.33;3.53;;;;;;;7.81;64.01;100615.81;10471405;28;20441;-68
2022/01/29 21:37:34;;;;;;;20.23;3.83;;;;;;;7.64;63.96;100606.94;10470494;28;20037;-68
2022/01/29 21:42:36;;;;;;;16.50;3.88;;;;;;;7.71;63.86;100627.47;10470326;28;20411;-69
2022/01/29 21:47:38;;;;;;;25.83;4.78;;;;;;;7.80;63.66;100621.94;10475746;28;20484;-69
2022/01/29 21:52:39;;;;;;;20.33;4.25;;;;;;;7.87;63.35;100623.44;10471038;28;20048;-68
2022/01/29 21:57:42;;;;;;;17.75;3.78;;;;;;;7.92;62.97;100621.47;10469010;28;20570;-68
2022/01/29 22:02:44;;;;;;;22.38;4.40;;;;;;;7.94;62.79;100637.91;10468495;28;20485;-68
2022/01/29 22:07:46;;;;;;;20.02;3.92;;;;;;;8.06;62.24;100651.38;10484710;28;20654;-69
2022/01/29 22:12:48;;;;;;;20.30;4.05;;;;;;;8.07;61.84;100653.06;10473375;28;20080;-68
2022/01/29 22:17:50;;;;;;;19.40;4.20;;;;;;;8.01;61.32;100649.78;10468690;28;20049;-69
2022/01/29 22:22:51;;;;;;;17.83;4.18;;;;;;;7.97;60.88;100648.22;10469545;28;20447;-68
2022/01/29 22:27:53;;;;;;;21.55;4.18;;;;;;;7.86;61.05;100658.16;10469801;28;20040;-68
2022/01/29 22:32:55;;;;;;;20.70;4.85;;;;;;;7.86;60.52;100645.16;10468867;28;20143;-68
2022/01/29 22:37:57;;;;;;;18.48;4.40;;;;;;;7.71;60.40;100655.28;10469590;28;20048;-69
2022/01/29 22:42:59;;;;;;;25.38;5.20;;;;;;;7.77;60.46;100666.31;10469103;28;20130;-69
2022/01/29 22:48:01;;;;;;;17.58;4.50;;;;;;;7.86;60.08;100672.94;10472252;28;20056;-69
2022/01/29 22:53:04;;;;;;;18.50;4.35;;;;;;;7.93;59.59;100664.00;10468285;28;20198;-69
2022/01/29 22:58:06;;;;;;;23.33;4.95;;;;;;;8.02;59.21;100669.72;10468332;28;20059;-69
2022/01/29 23:03:08;;;;;;;21.63;4.65;;;;;;;7.90;58.97;100672.78;10474101;28;20048;-68
2022/01/29 23:08:10;;;;;;;22.10;4.57;;;;;;;7.90;58.43;100684.94;10468762;28;20041;-68
2022/01/29 23:13:18;;;;;;;25.45;5.00;;;;;;;7.98;58.47;100683.75;10477094;28;20056;-69
2022/01/29 23:18:20;;;;;;;22.70;4.50;;;;;;;8.06;58.64;100687.84;10467805;28;20048;-68
2022/01/29 23:23:28;;;;;;;23.77;5.72;;;;;;;7.95;58.48;100701.25;10467081;28;20489;-68
2022/01/29 23:39:05;;;;;;;21.77;4.63;;;;;;;7.84;58.15;100714.66;10468021;28;20041;-68
2022/01/29 23:44:11;;;;;;;23.80;4.82;;;;;;;7.82;58.31;100698.25;10468124;28;20053;-68
2022/01/29 23:49:25;;;;;;;23.58;4.50;;;;;;;7.82;58.09;100707.81;10476519;28;20056;-68
2022/01/29 23:54:27;;;;;;;17.02;4.45;;;;;;;7.71;57.71;100702.16;10468279;28;20139;-68